sensor_id;sensor_type;location;lat;lon;timestamp;pressure;altitude;pressure_sealevel;temperature;humidity
6567;BME280;3317;43.994;22.878;2022-09-28T00:01:41;99758.28;;;17.09;74.18
6567;BME280;3317;43.994;22.878;2022-09-28T00:04:09;99742.34;;;16.99;74.83
6567;BME280;3317;43.994;22.878;2022-09-28T00:06:37;99751.56;;;17.05;74.92
6567;BME280;3317;43.994;22.878;2022-09-28T00:09:04;99754.53;;;17.03;74.79
6567;BME280;3317;43.994;22.878;2022-09-28T00:11:31;99743.78;;;17.02;74.49
6567;BME280;3317;43.994;22.878;2022-09-28T00:13:59;99736.66;;;16.94;73.81
6567;BME280;3317;43.994;22.878;2022-09-28T00:16:30;99741.72;;;16.97;73.12
6567;BME280;3317;43.994;22.878;2022-09-28T00:18:58;99745.50;;;16.96;71.92
6567;BME280;3317;43.994;22.878;2022-09-28T00:21:28;99740.25;;;16.95;71.24
6567;BME280;3317;43.994;22.878;2022-09-28T00:23:57;99750.34;;;16.94;70.54
6567;BME280;3317;43.994;22.878;2022-09-28T00:26:42;99746.97;;;16.92;70.68
6567;BME280;3317;43.994;22.878;2022-09-28T00:29:20;99744.50;;;16.91;70.90
6567;BME280;3317;43.994;22.878;2022-09-28T00:31:50;99731.06;;;16.82;71.24
6567;BME280;3317;43.994;22.878;2022-09-28T00:34:18;99750.63;;;16.86;70.18
6567;BME280;3317;43.994;22.878;2022-09-28T00:36:47;99750.81;;;16.84;69.27
6567;BME280;3317;43.994;22.878;2022-09-28T00:39:15;99743.50;;;16.78;68.96
6567;BME280;3317;43.994;22.878;2022-09-28T00:41:43;99761.34;;;16.81;68.49
6567;BME280;3317;43.994;22.878;2022-09-28T00:44:33;99749.59;;;16.80;68.47
6567;BME280;3317;43.994;22.878;2022-09-28T00:47:05;99756.34;;;16.78;68.79
6567;BME280;3317;43.994;22.878;2022-09-28T00:49:38;99761.81;;;16.78;69.94
6567;BME280;3317;43.994;22.878;2022-09-28T00:52:11;99769.41;;;16.75;69.47
6567;BME280;3317;43.994;22.878;2022-09-28T00:54:42;99763.31;;;16.73;69.33
6567;BME280;3317;43.994;22.878;2022-09-28T00:57:12;99761.63;;;16.72;69.58
6567;BME280;3317;43.994;22.878;2022-09-28T00:59:39;99756.56;;;16.69;69.73
6567;BME280;3317;43.994;22.878;2022-09-28T01:02:07;99751.09;;;16.69;69.36
6567;BME280;3317;43.994;22.878;2022-09-28T01:04:36;99752.16;;;16.68;68.68
6567;BME280;3317;43.994;22.878;2022-09-28T01:07:03;99759.75;;;16.66;68.45
6567;BME280;3317;43.994;22.878;2022-09-28T01:09:32;99751.78;;;16.65;69.43
6567;BME280;3317;43.994;22.878;2022-09-28T01:11:59;99748.41;;;16.63;68.93
6567;BME280;3317;43.994;22.878;2022-09-28T01:14:26;99764.00;;;16.62;69.83
6567;BME280;3317;43.994;22.878;2022-09-28T01:16:59;99760.66;;;16.60;70.54
6567;BME280;3317;43.994;22.878;2022-09-28T01:19:42;99754.31;;;16.59;71.26
6567;BME280;3317;43.994;22.878;2022-09-28T01:22:26;99752.25;;;16.55;71.20
6567;BME280;3317;43.994;22.878;2022-09-28T01:25:05;99756.88;;;16.54;70.25
6567;BME280;3317;43.994;22.878;2022-09-28T01:27:38;99758.16;;;16.52;69.88
6567;BME280;3317;43.994;22.878;2022-09-28T01:30:11;99755.63;;;16.50;70.51
6567;BME280;3317;43.994;22.878;2022-09-28T01:32:47;99752.50;;;16.46;69.23
6567;BME280;3317;43.994;22.878;2022-09-28T01:35:19;99742.63;;;16.45;69.87
6567;BME280;3317;43.994;22.878;2022-09-28T01:37:54;99752.91;;;16.43;70.04
6567;BME280;3317;43.994;22.878;2022-09-28T01:40:25;99753.97;;;16.42;69.73
6567;BME280;3317;43.994;22.878;2022-09-28T01:42:59;99753.19;;;16.35;69.24
6567;BME280;3317;43.994;22.878;2022-09-28T01:45:31;99770.00;;;16.39;69.94
6567;BME280;3317;43.994;22.878;2022-09-28T01:48:02;99721.53;;;16.07;69.66
6567;BME280;3317;43.994;22.878;2022-09-28T01:50:35;99775.03;;;16.35;70.36
6567;BME280;3317;43.994;22.878;2022-09-28T01:53:09;99749.03;;;16.19;69.09
6567;BME280;3317;43.994;22.878;2022-09-28T01:55:41;99780.94;;;16.32;68.19
6567;BME280;3317;43.994;22.878;2022-09-28T01:58:13;99788.75;;;16.28;66.95
6567;BME280;3317;43.994;22.878;2022-09-28T02:00:43;99774.66;;;16.25;66.57
6567;BME280;3317;43.994;22.878;2022-09-28T02:03:15;99780.97;;;16.25;67.39
6567;BME280;3317;43.994;22.878;2022-09-28T02:05:48;99774.47;;;16.19;67.15
6567;BME280;3317;43.994;22.878;2022-09-28T02:08:20;99745.28;;;16.00;67.63
6567;BME280;3317;43.994;22.878;2022-09-28T02:10:56;99784.34;;;16.21;69.58
6567;BME280;3317;43.994;22.878;2022-09-28T02:13:28;99778.25;;;16.18;70.64
6567;BME280;3317;43.994;22.878;2022-09-28T02:16:03;99777.41;;;16.18;71.88
6567;BME280;3317;43.994;22.878;2022-09-28T02:18:32;99770.25;;;16.17;72.25
6567;BME280;3317;43.994;22.878;2022-09-28T02:21:04;99765.88;;;16.09;71.53
6567;BME280;3317;43.994;22.878;2022-09-28T02:23:34;99788.53;;;16.16;70.87
6567;BME280;3317;43.994;22.878;2022-09-28T02:26:05;99785.81;;;16.16;70.58
6567;BME280;3317;43.994;22.878;2022-09-28T02:28:36;99791.09;;;16.11;68.86
6567;BME280;3317;43.994;22.878;2022-09-28T02:31:03;99795.50;;;16.12;68.21
6567;BME280;3317;43.994;22.878;2022-09-28T02:33:33;99792.16;;;16.10;68.02
6567;BME280;3317;43.994;22.878;2022-09-28T02:36:02;99795.94;;;16.09;68.16
6567;BME280;3317;43.994;22.878;2022-09-28T02:38:30;99801.84;;;16.06;67.86
6567;BME280;3317;43.994;22.878;2022-09-28T02:41:02;99781.25;;;15.97;69.05
6567;BME280;3317;43.994;22.878;2022-09-28T02:43:39;99794.47;;;16.07;69.54
6567;BME280;3317;43.994;22.878;2022-09-28T02:46:16;99779.13;;;15.99;68.61
6567;BME280;3317;43.994;22.878;2022-09-28T02:48:58;99792.38;;;16.02;68.32
6567;BME280;3317;43.994;22.878;2022-09-28T02:51:34;99787.34;;;15.99;68.22
6567;BME280;3317;43.994;22.878;2022-09-28T02:54:30;99794.47;;;16.00;69.22
6567;BME280;3317;43.994;22.878;2022-09-28T02:57:11;99800.38;;;15.97;69.54
6567;BME280;3317;43.994;22.878;2022-09-28T02:59:47;99791.31;;;15.96;71.11
6567;BME280;3317;43.994;22.878;2022-09-28T03:02:24;99735.88;;;15.62;69.79
6567;BME280;3317;43.994;22.878;2022-09-28T03:05:02;99790.94;;;15.93;69.82
6567;BME280;3317;43.994;22.878;2022-09-28T03:07:34;99792.81;;;15.92;69.55
6567;BME280;3317;43.994;22.878;2022-09-28T03:10:07;99728.94;;;15.59;69.06
6567;BME280;3317;43.994;22.878;2022-09-28T03:12:36;99788.59;;;15.89;69.88
6567;BME280;3317;43.994;22.878;2022-09-28T03:15:11;99784.38;;;15.87;71.04
6567;BME280;3317;43.994;22.878;2022-09-28T03:17:38;99791.72;;;15.86;71.68
6567;BME280;3317;43.994;22.878;2022-09-28T03:20:08;99781.00;;;15.78;72.02
6567;BME280;3317;43.994;22.878;2022-09-28T03:22:36;99775.56;;;15.78;71.11
6567;BME280;3317;43.994;22.878;2022-09-28T03:25:04;99795.72;;;15.84;70.39
6567;BME280;3317;43.994;22.878;2022-09-28T03:27:31;99797.00;;;15.81;71.02
6567;BME280;3317;43.994;22.878;2022-09-28T03:29:58;99789.00;;;15.73;71.90
6567;BME280;3317;43.994;22.878;2022-09-28T03:32:26;99812.34;;;15.82;71.55
6567;BME280;3317;43.994;22.878;2022-09-28T03:34:53;99813.41;;;15.81;70.46
6567;BME280;3317;43.994;22.878;2022-09-28T03:37:21;99791.13;;;15.71;69.61
6567;BME280;3317;43.994;22.878;2022-09-28T03:39:48;99806.44;;;15.79;69.12
6567;BME280;3317;43.994;22.878;2022-09-28T03:42:15;99803.91;;;15.77;68.73
6567;BME280;3317;43.994;22.878;2022-09-28T03:44:42;99801.63;;;15.74;68.18
6567;BME280;3317;43.994;22.878;2022-09-28T03:47:09;99803.28;;;15.75;67.66
6567;BME280;3317;43.994;22.878;2022-09-28T03:49:37;99793.41;;;15.74;67.92
6567;BME280;3317;43.994;22.878;2022-09-28T03:52:04;99789.22;;;15.71;67.93
6567;BME280;3317;43.994;22.878;2022-09-28T03:54:31;99784.81;;;15.70;67.84
6567;BME280;3317;43.994;22.878;2022-09-28T03:56:58;99794.91;;;15.70;67.87
6567;BME280;3317;43.994;22.878;2022-09-28T03:59:25;99786.09;;;15.68;67.58
6567;BME280;3317;43.994;22.878;2022-09-28T04:01:52;99805.22;;;15.68;68.37
6567;BME280;3317;43.994;22.878;2022-09-28T04:04:18;99805.59;;;15.65;68.29
6567;BME280;3317;43.994;22.878;2022-09-28T04:06:47;99800.38;;;15.63;67.68
6567;BME280;3317;43.994;22.878;2022-09-28T04:09:14;99805.41;;;15.59;67.42
6567;BME280;3317;43.994;22.878;2022-09-28T04:11:41;99807.94;;;15.61;66.54
6567;BME280;3317;43.994;22.878;2022-09-28T04:14:08;99817.56;;;15.57;65.68
6567;BME280;3317;43.994;22.878;2022-09-28T04:16:35;99826.00;;;15.55;65.50
6567;BME280;3317;43.994;22.878;2022-09-28T04:19:03;99826.00;;;15.55;65.54
6567;BME280;3317;43.994;22.878;2022-09-28T04:21:30;99818.63;;;15.49;65.73
6567;BME280;3317;43.994;22.878;2022-09-28T04:23:58;99825.13;;;15.41;66.29
6567;BME280;3317;43.994;22.878;2022-09-28T04:26:26;99826.81;;;15.35;66.99
6567;BME280;3317;43.994;22.878;2022-09-28T04:28:53;99834.16;;;15.28;67.35
6567;BME280;3317;43.994;22.878;2022-09-28T04:31:47;99835.41;;;15.26;69.42
6567;BME280;3317;43.994;22.878;2022-09-28T04:34:16;99843.59;;;15.26;72.16
6567;BME280;3317;43.994;22.878;2022-09-28T04:36:44;99853.47;;;15.27;73.52
6567;BME280;3317;43.994;22.878;2022-09-28T04:39:13;99853.47;;;15.27;74.58
6567;BME280;3317;43.994;22.878;2022-09-28T04:41:41;99851.34;;;15.29;74.79
6567;BME280;3317;43.994;22.878;2022-09-28T04:44:08;99856.00;;;15.28;74.87
6567;BME280;3317;43.994;22.878;2022-09-28T04:46:35;99852.63;;;15.33;75.84
6567;BME280;3317;43.994;22.878;2022-09-28T04:49:02;99850.75;;;15.33;76.39
6567;BME280;3317;43.994;22.878;2022-09-28T04:51:29;99849.50;;;15.36;76.60
6567;BME280;3317;43.994;22.878;2022-09-28T04:53:57;99862.09;;;15.44;76.73
6567;BME280;3317;43.994;22.878;2022-09-28T04:56:26;99859.59;;;15.49;76.78
6567;BME280;3317;43.994;22.878;2022-09-28T04:58:53;99854.56;;;15.53;76.95
6567;BME280;3317;43.994;22.878;2022-09-28T05:01:19;99854.97;;;15.56;77.56
6567;BME280;3317;43.994;22.878;2022-09-28T05:03:48;99839.41;;;15.57;77.91
6567;BME280;3317;43.994;22.878;2022-09-28T05:06:15;99850.78;;;15.67;78.07
6567;BME280;3317;43.994;22.878;2022-09-28T05:08:42;99844.88;;;15.70;78.27
6567;BME280;3317;43.994;22.878;2022-09-28T05:11:12;99851.22;;;15.77;76.90
6567;BME280;3317;43.994;22.878;2022-09-28T05:13:42;99857.09;;;15.81;76.05
6567;BME280;3317;43.994;22.878;2022-09-28T05:16:12;99850.56;;;15.82;75.69
6567;BME280;3317;43.994;22.878;2022-09-28T05:18:40;99863.41;;;15.95;74.74
6567;BME280;3317;43.994;22.878;2022-09-28T05:21:09;99858.81;;;15.96;75.29
6567;BME280;3317;43.994;22.878;2022-09-28T05:23:37;99862.16;;;15.98;76.05
6567;BME280;3317;43.994;22.878;2022-09-28T05:26:04;99861.94;;;16.06;76.12
6567;BME280;3317;43.994;22.878;2022-09-28T05:28:32;99853.94;;;16.11;75.44
6567;BME280;3317;43.994;22.878;2022-09-28T05:31:01;99840.28;;;16.04;74.74
6567;BME280;3317;43.994;22.878;2022-09-28T05:33:29;99860.66;;;16.15;74.21
6567;BME280;3317;43.994;22.878;2022-09-28T05:35:57;99870.75;;;16.22;74.48
6567;BME280;3317;43.994;22.878;2022-09-28T05:38:24;99865.50;;;16.20;73.65
6567;BME280;3317;43.994;22.878;2022-09-28T05:40:51;99870.50;;;16.30;73.82
6567;BME280;3317;43.994;22.878;2022-09-28T05:43:18;99861.06;;;16.26;74.44
6567;BME280;3317;43.994;22.878;2022-09-28T05:45:45;99863.16;;;16.37;73.55
6567;BME280;3317;43.994;22.878;2022-09-28T05:48:13;99855.13;;;16.42;73.29
6567;BME280;3317;43.994;22.878;2022-09-28T05:50:40;99850.94;;;16.46;72.35
6567;BME280;3317;43.994;22.878;2022-09-28T05:53:08;99843.34;;;16.49;72.97
6567;BME280;3317;43.994;22.878;2022-09-28T05:55:36;99835.19;;;16.42;73.37
6567;BME280;3317;43.994;22.878;2022-09-28T05:58:05;99858.88;;;16.55;73.37
6567;BME280;3317;43.994;22.878;2022-09-28T06:00:34;99855.75;;;16.58;72.95
6567;BME280;3317;43.994;22.878;2022-09-28T06:03:02;99853.41;;;16.61;72.24
6567;BME280;3317;43.994;22.878;2022-09-28T06:05:34;99845.41;;;16.67;71.17
6567;BME280;3317;43.994;22.878;2022-09-28T06:08:02;99830.44;;;16.69;71.57
6567;BME280;3317;43.994;22.878;2022-09-28T06:10:30;99823.94;;;16.70;72.36
6567;BME280;3317;43.994;22.878;2022-09-28T06:12:58;99819.50;;;16.69;73.48
6567;BME280;3317;43.994;22.878;2022-09-28T06:15:27;99812.16;;;16.63;74.32
6567;BME280;3317;43.994;22.878;2022-09-28T06:17:58;99815.97;;;16.62;74.54
6567;BME280;3317;43.994;22.878;2022-09-28T06:20:28;99821.00;;;16.65;74.85
6567;BME280;3317;43.994;22.878;2022-09-28T06:22:58;99824.13;;;16.69;74.09
6567;BME280;3317;43.994;22.878;2022-09-28T06:25:26;99820.75;;;16.73;73.98
6567;BME280;3317;43.994;22.878;2022-09-28T06:27:54;99825.78;;;16.77;74.66
6567;BME280;3317;43.994;22.878;2022-09-28T06:30:21;99827.63;;;16.83;75.35
6567;BME280;3317;43.994;22.878;2022-09-28T06:32:52;99832.91;;;16.84;73.91
6567;BME280;3317;43.994;22.878;2022-09-28T06:35:20;99841.28;;;16.89;74.06
6567;BME280;3317;43.994;22.878;2022-09-28T06:37:47;99850.53;;;16.95;74.10
6567;BME280;3317;43.994;22.878;2022-09-28T06:40:16;99859.38;;;17.04;74.36
6567;BME280;3317;43.994;22.878;2022-09-28T06:42:44;99871.13;;;17.11;75.44
6567;BME280;3317;43.994;22.878;2022-09-28T06:45:19;99887.25;;;17.26;76.18
6567;BME280;3317;43.994;22.878;2022-09-28T06:47:52;99878.19;;;17.26;76.59
6567;BME280;3317;43.994;22.878;2022-09-28T06:50:19;99901.25;;;17.50;76.54
6567;BME280;3317;43.994;22.878;2022-09-28T06:52:49;99886.88;;;17.55;75.83
6567;BME280;3317;43.994;22.878;2022-09-28T06:55:17;99898.13;;;17.72;75.39
6567;BME280;3317;43.994;22.878;2022-09-28T06:57:44;99887.91;;;17.86;74.58
6567;BME280;3317;43.994;22.878;2022-09-28T07:00:13;99882.53;;;17.98;74.13
6567;BME280;3317;43.994;22.878;2022-09-28T07:02:40;99870.88;;;18.09;73.76
6567;BME280;3317;43.994;22.878;2022-09-28T07:05:10;99885.97;;;18.19;73.00
6567;BME280;3317;43.994;22.878;2022-09-28T07:07:38;99883.31;;;18.30;72.84
6567;BME280;3317;43.994;22.878;2022-09-28T07:10:09;99876.88;;;18.43;72.18
6567;BME280;3317;43.994;22.878;2022-09-28T07:12:38;99876.28;;;18.60;71.71
6567;BME280;3317;43.994;22.878;2022-09-28T07:15:07;99882.66;;;18.72;71.59
6567;BME280;3317;43.994;22.878;2022-09-28T07:17:34;99878.56;;;18.82;71.81
6567;BME280;3317;43.994;22.878;2022-09-28T07:20:02;99872.13;;;18.88;71.20
6567;BME280;3317;43.994;22.878;2022-09-28T07:22:29;99884.44;;;19.04;71.27
6567;BME280;3317;43.994;22.878;2022-09-28T07:24:56;99891.03;;;19.15;71.74
6567;BME280;3317;43.994;22.878;2022-09-28T07:27:23;99889.66;;;19.24;70.09
6567;BME280;3317;43.994;22.878;2022-09-28T07:29:52;99893.66;;;19.40;69.51
6567;BME280;3317;43.994;22.878;2022-09-28T07:32:19;99891.81;;;19.53;68.88
6567;BME280;3317;43.994;22.878;2022-09-28T07:34:46;99908.47;;;19.70;68.15
6567;BME280;3317;43.994;22.878;2022-09-28T07:37:14;99901.19;;;19.88;68.14
6567;BME280;3317;43.994;22.878;2022-09-28T07:39:43;99897.91;;;20.09;67.26
6567;BME280;3317;43.994;22.878;2022-09-28T07:42:28;99900.06;;;20.31;66.07
6567;BME280;3317;43.994;22.878;2022-09-28T07:44:56;99900.06;;;20.55;65.44
6567;BME280;3317;43.994;22.878;2022-09-28T07:47:24;99898.34;;;20.78;64.79
6567;BME280;3317;43.994;22.878;2022-09-28T07:49:52;99904.69;;;20.90;63.78
6567;BME280;3317;43.994;22.878;2022-09-28T07:52:21;99879.56;;;20.99;63.40
6567;BME280;3317;43.994;22.878;2022-09-28T07:54:51;99889.56;;;21.34;63.67
6567;BME280;3317;43.994;22.878;2022-09-28T07:57:19;99899.81;;;21.50;63.51
6567;BME280;3317;43.994;22.878;2022-09-28T07:59:46;99902.88;;;21.66;62.07
6567;BME280;3317;43.994;22.878;2022-09-28T08:02:15;99898.38;;;21.77;61.00
6567;BME280;3317;43.994;22.878;2022-09-28T08:04:46;99883.66;;;21.71;60.49
6567;BME280;3317;43.994;22.878;2022-09-28T08:07:14;99902.75;;;21.90;60.41
6567;BME280;3317;43.994;22.878;2022-09-28T08:09:41;99901.06;;;22.06;60.18
6567;BME280;3317;43.994;22.878;2022-09-28T08:12:09;99900.81;;;22.25;60.71
6567;BME280;3317;43.994;22.878;2022-09-28T08:14:37;99903.03;;;22.45;61.43
6567;BME280;3317;43.994;22.878;2022-09-28T08:17:05;99899.44;;;22.61;59.72
6567;BME280;3317;43.994;22.878;2022-09-28T08:19:33;99891.88;;;22.74;59.32
6567;BME280;3317;43.994;22.878;2022-09-28T08:22:15;99890.66;;;22.87;58.45
6567;BME280;3317;43.994;22.878;2022-09-28T08:24:43;99885.72;;;22.89;57.26
6567;BME280;3317;43.994;22.878;2022-09-28T08:27:10;99887.00;;;23.03;57.79
6567;BME280;3317;43.994;22.878;2022-09-28T08:29:37;99858.50;;;23.03;57.87
6567;BME280;3317;43.994;22.878;2022-09-28T08:32:06;99889.50;;;23.27;57.50
6567;BME280;3317;43.994;22.878;2022-09-28T08:34:35;99887.06;;;23.31;55.95
6567;BME280;3317;43.994;22.878;2022-09-28T08:37:05;99902.19;;;23.51;56.89
6567;BME280;3317;43.994;22.878;2022-09-28T08:39:33;99892.31;;;23.60;56.55
6567;BME280;3317;43.994;22.878;2022-09-28T08:42:11;99904.66;;;23.80;56.52
6567;BME280;3317;43.994;22.878;2022-09-28T08:44:43;99907.53;;;23.95;56.42
6567;BME280;3317;43.994;22.878;2022-09-28T08:47:14;99906.00;;;24.04;55.43
6567;BME280;3317;43.994;22.878;2022-09-28T08:50:02;99897.81;;;24.20;56.56
6567;BME280;3317;43.994;22.878;2022-09-28T08:52:33;99897.03;;;24.25;54.80
6567;BME280;3317;43.994;22.878;2022-09-28T08:55:08;99895.13;;;24.30;54.69
6567;BME280;3317;43.994;22.878;2022-09-28T08:57:42;99893.50;;;24.35;54.27
6567;BME280;3317;43.994;22.878;2022-09-28T09:00:16;99891.25;;;24.31;54.01
6567;BME280;3317;43.994;22.878;2022-09-28T09:02:47;99891.53;;;24.30;53.33
6567;BME280;3317;43.994;22.878;2022-09-28T09:05:18;99884.63;;;24.32;54.02
6567;BME280;3317;43.994;22.878;2022-09-28T09:07:59;99884.91;;;24.36;54.64
6567;BME280;3317;43.994;22.878;2022-09-28T09:10:40;99889.13;;;24.44;54.07
6567;BME280;3317;43.994;22.878;2022-09-28T09:13:33;99889.16;;;24.49;54.43
6567;BME280;3317;43.994;22.878;2022-09-28T09:16:13;99885.31;;;24.55;53.95
6567;BME280;3317;43.994;22.878;2022-09-28T09:18:48;99887.25;;;24.55;53.79
6567;BME280;3317;43.994;22.878;2022-09-28T09:21:32;99878.91;;;24.50;53.46
6567;BME280;3317;43.994;22.878;2022-09-28T09:24:11;99880.25;;;24.47;53.29
6567;BME280;3317;43.994;22.878;2022-09-28T09:26:42;99866.09;;;24.38;52.15
6567;BME280;3317;43.994;22.878;2022-09-28T09:29:28;99866.38;;;24.37;52.56
6567;BME280;3317;43.994;22.878;2022-09-28T09:32:08;99874.97;;;24.40;53.40
6567;BME280;3317;43.994;22.878;2022-09-28T09:35:05;99867.25;;;24.42;53.57
6567;BME280;3317;43.994;22.878;2022-09-28T09:37:56;99856.66;;;24.34;53.68
6567;BME280;3317;43.994;22.878;2022-09-28T09:40:44;99878.31;;;24.42;53.24
6567;BME280;3317;43.994;22.878;2022-09-28T09:43:46;99878.28;;;24.37;52.72
6567;BME280;3317;43.994;22.878;2022-09-28T09:46:31;99890.44;;;24.31;52.42
6567;BME280;3317;43.994;22.878;2022-09-28T09:49:05;99879.31;;;24.26;52.35
6567;BME280;3317;43.994;22.878;2022-09-28T09:51:40;99879.03;;;24.22;53.21
6567;BME280;3317;43.994;22.878;2022-09-28T09:54:17;99857.63;;;24.12;54.31
6567;BME280;3317;43.994;22.878;2022-09-28T09:56:51;99854.34;;;24.15;54.78
6567;BME280;3317;43.994;22.878;2022-09-28T09:59:23;99874.88;;;24.25;54.03
6567;BME280;3317;43.994;22.878;2022-09-28T10:01:51;99852.41;;;24.16;54.16
6567;BME280;3317;43.994;22.878;2022-09-28T10:04:22;99864.66;;;24.25;53.72
6567;BME280;3317;43.994;22.878;2022-09-28T10:06:55;99861.09;;;24.30;54.85
6567;BME280;3317;43.994;22.878;2022-09-28T10:09:27;99855.81;;;24.33;54.89
6567;BME280;3317;43.994;22.878;2022-09-28T10:11:56;99853.66;;;24.36;55.22
6567;BME280;3317;43.994;22.878;2022-09-28T10:14:24;99857.78;;;24.33;54.37
6567;BME280;3317;43.994;22.878;2022-09-28T10:16:52;99862.00;;;24.46;54.94
6567;BME280;3317;43.994;22.878;2022-09-28T10:19:27;99863.72;;;24.57;53.20
6567;BME280;3317;43.994;22.878;2022-09-28T10:22:02;99865.50;;;24.79;53.55
6567;BME280;3317;43.994;22.878;2022-09-28T10:24:33;99864.78;;;25.10;53.50
6567;BME280;3317;43.994;22.878;2022-09-28T10:27:04;99847.34;;;25.20;50.77
6567;BME280;3317;43.994;22.878;2022-09-28T10:29:39;99852.41;;;25.38;49.44
6567;BME280;3317;43.994;22.878;2022-09-28T10:32:21;99845.44;;;25.36;48.22
6567;BME280;3317;43.994;22.878;2022-09-28T10:34:49;99858.75;;;25.44;48.43
6567;BME280;3317;43.994;22.878;2022-09-28T10:37:18;99857.97;;;25.49;48.13
6567;BME280;3317;43.994;22.878;2022-09-28T10:39:50;99859.09;;;25.68;48.62
6567;BME280;3317;43.994;22.878;2022-09-28T10:42:21;99844.66;;;25.87;49.75
6567;BME280;3317;43.994;22.878;2022-09-28T10:44:52;99864.59;;;26.15;49.24
6567;BME280;3317;43.994;22.878;2022-09-28T10:47:21;99859.06;;;26.25;47.28
6567;BME280;3317;43.994;22.878;2022-09-28T10:49:50;99855.78;;;26.18;45.56
6567;BME280;3317;43.994;22.878;2022-09-28T10:52:30;99858.78;;;26.17;46.32
6567;BME280;3317;43.994;22.878;2022-09-28T10:54:59;99863.78;;;26.30;48.05
6567;BME280;3317;43.994;22.878;2022-09-28T10:57:29;99852.66;;;26.40;47.70
6567;BME280;3317;43.994;22.878;2022-09-28T10:59:58;99854.56;;;26.55;48.36
6567;BME280;3317;43.994;22.878;2022-09-28T11:02:28;99851.75;;;26.66;48.19
6567;BME280;3317;43.994;22.878;2022-09-28T11:04:58;99849.50;;;26.73;47.52
6567;BME280;3317;43.994;22.878;2022-09-28T11:07:28;99819.59;;;26.54;47.25
6567;BME280;3317;43.994;22.878;2022-09-28T11:10:00;99845.84;;;26.83;47.75
6567;BME280;3317;43.994;22.878;2022-09-28T11:12:34;99853.91;;;26.84;47.09
6567;BME280;3317;43.994;22.878;2022-09-28T11:15:06;99861.16;;;26.75;46.32
6567;BME280;3317;43.994;22.878;2022-09-28T11:17:35;99855.94;;;26.63;46.25
6567;BME280;3317;43.994;22.878;2022-09-28T11:20:27;99860.72;;;26.37;46.00
6567;BME280;3317;43.994;22.878;2022-09-28T11:22:56;99850.22;;;26.18;46.91
6567;BME280;3317;43.994;22.878;2022-09-28T11:25:26;99841.31;;;26.16;48.07
6567;BME280;3317;43.994;22.878;2022-09-28T11:27:59;99848.78;;;26.15;48.46
6567;BME280;3317;43.994;22.878;2022-09-28T11:30:28;99843.25;;;26.10;48.40
6567;BME280;3317;43.994;22.878;2022-09-28T11:33:02;99842.44;;;25.99;48.90
6567;BME280;3317;43.994;22.878;2022-09-28T11:35:41;99830.25;;;25.90;48.80
6567;BME280;3317;43.994;22.878;2022-09-28T11:38:28;99836.88;;;25.89;49.96
6567;BME280;3317;43.994;22.878;2022-09-28T11:41:12;99834.13;;;25.84;50.16
6567;BME280;3317;43.994;22.878;2022-09-28T11:43:54;99842.47;;;25.79;49.20
6567;BME280;3317;43.994;22.878;2022-09-28T11:46:31;99825.00;;;25.57;49.41
6567;BME280;3317;43.994;22.878;2022-09-28T11:49:04;99834.97;;;25.64;49.01
6567;BME280;3317;43.994;22.878;2022-09-28T11:51:36;99836.63;;;25.49;49.43
6567;BME280;3317;43.994;22.878;2022-09-28T11:54:11;99835.75;;;25.43;49.87
6567;BME280;3317;43.994;22.878;2022-09-28T11:56:43;99824.09;;;25.41;50.30
6567;BME280;3317;43.994;22.878;2022-09-28T11:59:14;99817.44;;;25.37;50.79
6567;BME280;3317;43.994;22.878;2022-09-28T12:01:46;99808.00;;;25.17;49.81
6567;BME280;3317;43.994;22.878;2022-09-28T12:04:17;99814.06;;;25.09;50.89
6567;BME280;3317;43.994;22.878;2022-09-28T12:06:50;99805.47;;;25.11;51.17
6567;BME280;3317;43.994;22.878;2022-09-28T12:09:24;99802.44;;;25.12;51.94
6567;BME280;3317;43.994;22.878;2022-09-28T12:11:57;99809.38;;;25.15;52.41
6567;BME280;3317;43.994;22.878;2022-09-28T12:14:30;99798.84;;;25.07;51.48
6567;BME280;3317;43.994;22.878;2022-09-28T12:17:03;99801.31;;;25.03;51.59
6567;BME280;3317;43.994;22.878;2022-09-28T12:19:37;99793.56;;;25.05;52.31
6567;BME280;3317;43.994;22.878;2022-09-28T12:22:11;99791.63;;;25.11;52.14
6567;BME280;3317;43.994;22.878;2022-09-28T12:24:44;99801.34;;;25.19;52.77
6567;BME280;3317;43.994;22.878;2022-09-28T12:27:16;99800.78;;;25.22;52.82
6567;BME280;3317;43.994;22.878;2022-09-28T12:29:53;99789.97;;;25.30;53.64
6567;BME280;3317;43.994;22.878;2022-09-28T12:32:27;99795.81;;;25.34;52.94
6567;BME280;3317;43.994;22.878;2022-09-28T12:34:56;99788.06;;;25.41;52.92
6567;BME280;3317;43.994;22.878;2022-09-28T12:37:38;99786.94;;;25.48;52.92
6567;BME280;3317;43.994;22.878;2022-09-28T12:40:35;99796.41;;;25.52;51.93
6567;BME280;3317;43.994;22.878;2022-09-28T12:43:17;99781.38;;;25.37;50.79
6567;BME280;3317;43.994;22.878;2022-09-28T12:46:07;99777.53;;;25.28;50.63
6567;BME280;3317;43.994;22.878;2022-09-28T12:49:04;99775.84;;;25.16;50.41
6567;BME280;3317;43.994;22.878;2022-09-28T12:51:43;99771.94;;;25.07;50.94
6567;BME280;3317;43.994;22.878;2022-09-28T12:54:28;99765.00;;;24.99;50.88
6567;BME280;3317;43.994;22.878;2022-09-28T12:57:09;99788.28;;;25.14;51.68
6567;BME280;3317;43.994;22.878;2022-09-28T12:59:54;99785.28;;;25.26;51.93
6567;BME280;3317;43.994;22.878;2022-09-28T13:02:58;99791.91;;;25.35;52.07
6567;BME280;3317;43.994;22.878;2022-09-28T13:08:32;99789.19;;;25.51;51.57
6567;BME280;3317;43.994;22.878;2022-09-28T13:11:13;99787.00;;;25.53;51.79
6567;BME280;3317;43.994;22.878;2022-09-28T13:13:49;99796.97;;;25.54;51.80
6567;BME280;3317;43.994;22.878;2022-09-28T13:16:27;99806.38;;;25.63;51.99
6567;BME280;3317;43.994;22.878;2022-09-28T13:19:05;99805.84;;;25.66;51.50
6567;BME280;3317;43.994;22.878;2022-09-28T13:21:40;99800.28;;;25.66;51.50
6567;BME280;3317;43.994;22.878;2022-09-28T13:24:13;99803.59;;;25.63;51.46
6567;BME280;3317;43.994;22.878;2022-09-28T13:26:43;99795.84;;;25.55;51.04
6567;BME280;3317;43.994;22.878;2022-09-28T13:29:14;99797.50;;;25.40;51.28
6567;BME280;3317;43.994;22.878;2022-09-28T13:31:46;99795.81;;;25.39;51.79
6567;BME280;3317;43.994;22.878;2022-09-28T13:34:17;99789.16;;;25.35;52.00
6567;BME280;3317;43.994;22.878;2022-09-28T13:39:49;99802.19;;;25.35;51.79
6567;BME280;3317;43.994;22.878;2022-09-28T13:42:33;99805.78;;;25.35;51.74